sensor_id;sensor_type;location;lat;lon;timestamp;P1;durP1;ratioP1;P2;durP2;ratioP2
70715;SDS011;59053;50.832;12.882;2022-12-07T00:02:14;15.33;;;5.90;;
70715;SDS011;59053;50.832;12.882;2022-12-07T00:04:39;17.33;;;6.37;;
70715;SDS011;59053;50.832;12.882;2022-12-07T00:07:04;22.07;;;7.10;;
70715;SDS011;59053;50.832;12.882;2022-12-07T00:09:29;21.53;;;7.47;;
70715;SDS011;59053;50.832;12.882;2022-12-07T00:11:55;23.47;;;7.83;;
70715;SDS011;59053;50.832;12.882;2022-12-07T00:14:20;19.20;;;7.23;;
70715;SDS011;59053;50.832;12.882;2022-12-07T00:16:46;20.23;;;7.03;;
70715;SDS011;59053;50.832;12.882;2022-12-07T00:19:13;21.77;;;7.45;;
70715;SDS011;59053;50.832;12.882;2022-12-07T00:21:39;17.93;;;6.53;;
70715;SDS011;59053;50.832;12.882;2022-12-07T00:24:04;22.50;;;7.50;;
70715;SDS011;59053;50.832;12.882;2022-12-07T00:26:31;22.90;;;7.53;;
70715;SDS011;59053;50.832;12.882;2022-12-07T00:29:00;24.75;;;7.20;;
70715;SDS011;59053;50.832;12.882;2022-12-07T00:31:30;22.48;;;7.85;;
70715;SDS011;59053;50.832;12.882;2022-12-07T00:33:56;22.17;;;6.80;;
70715;SDS011;59053;50.832;12.882;2022-12-07T00:36:23;21.42;;;7.07;;
70715;SDS011;59053;50.832;12.882;2022-12-07T00:38:48;21.83;;;7.13;;
70715;SDS011;59053;50.832;12.882;2022-12-07T00:41:15;20.83;;;6.97;;
70715;SDS011;59053;50.832;12.882;2022-12-07T00:43:41;19.98;;;6.32;;
70715;SDS011;59053;50.832;12.882;2022-12-07T00:46:07;20.95;;;7.22;;
70715;SDS011;59053;50.832;12.882;2022-12-07T00:48:32;18.87;;;6.93;;
70715;SDS011;59053;50.832;12.882;2022-12-07T00:50:58;21.33;;;7.30;;
70715;SDS011;59053;50.832;12.882;2022-12-07T00:53:23;22.25;;;6.93;;
70715;SDS011;59053;50.832;12.882;2022-12-07T00:55:48;22.80;;;8.13;;
70715;SDS011;59053;50.832;12.882;2022-12-07T00:58:14;22.50;;;6.80;;
70715;SDS011;59053;50.832;12.882;2022-12-07T01:00:39;19.33;;;6.93;;
70715;SDS011;59053;50.832;12.882;2022-12-07T01:03:06;19.08;;;6.75;;
70715;SDS011;59053;50.832;12.882;2022-12-07T01:05:31;20.08;;;7.03;;
70715;SDS011;59053;50.832;12.882;2022-12-07T01:07:56;20.87;;;6.90;;
70715;SDS011;59053;50.832;12.882;2022-12-07T01:10:21;20.07;;;6.73;;
70715;SDS011;59053;50.832;12.882;2022-12-07T01:12:47;21.27;;;6.73;;
70715;SDS011;59053;50.832;12.882;2022-12-07T01:15:12;22.37;;;7.87;;
70715;SDS011;59053;50.832;12.882;2022-12-07T01:17:38;22.23;;;7.47;;
70715;SDS011;59053;50.832;12.882;2022-12-07T01:20:03;21.60;;;7.43;;
70715;SDS011;59053;50.832;12.882;2022-12-07T01:22:28;20.87;;;7.10;;
70715;SDS011;59053;50.832;12.882;2022-12-07T01:24:54;23.00;;;7.27;;
70715;SDS011;59053;50.832;12.882;2022-12-07T01:27:19;23.40;;;7.53;;
70715;SDS011;59053;50.832;12.882;2022-12-07T01:29:45;21.50;;;7.28;;
70715;SDS011;59053;50.832;12.882;2022-12-07T01:32:10;23.97;;;7.93;;
70715;SDS011;59053;50.832;12.882;2022-12-07T01:34:35;23.83;;;8.03;;
70715;SDS011;59053;50.832;12.882;2022-12-07T01:37:01;25.37;;;7.33;;
70715;SDS011;59053;50.832;12.882;2022-12-07T01:39:26;24.53;;;7.40;;
70715;SDS011;59053;50.832;12.882;2022-12-07T01:41:52;23.60;;;7.30;;
70715;SDS011;59053;50.832;12.882;2022-12-07T01:46:46;21.77;;;7.33;;
70715;SDS011;59053;50.832;12.882;2022-12-07T01:49:14;21.17;;;6.95;;
70715;SDS011;59053;50.832;12.882;2022-12-07T01:51:40;22.40;;;7.03;;
70715;SDS011;59053;50.832;12.882;2022-12-07T01:54:07;19.85;;;6.50;;
70715;SDS011;59053;50.832;12.882;2022-12-07T01:56:33;22.10;;;6.83;;
70715;SDS011;59053;50.832;12.882;2022-12-07T01:58:58;24.15;;;8.73;;
70715;SDS011;59053;50.832;12.882;2022-12-07T02:01:25;23.10;;;7.60;;
70715;SDS011;59053;50.832;12.882;2022-12-07T02:03:50;25.37;;;8.53;;
70715;SDS011;59053;50.832;12.882;2022-12-07T02:06:16;25.00;;;8.47;;
70715;SDS011;59053;50.832;12.882;2022-12-07T02:08:43;22.73;;;7.28;;
70715;SDS011;59053;50.832;12.882;2022-12-07T02:11:08;21.00;;;7.63;;
70715;SDS011;59053;50.832;12.882;2022-12-07T02:13:35;22.07;;;8.00;;
70715;SDS011;59053;50.832;12.882;2022-12-07T02:21:46;23.70;;;8.48;;
70715;SDS011;59053;50.832;12.882;2022-12-07T02:27:00;25.88;;;8.63;;
70715;SDS011;59053;50.832;12.882;2022-12-07T02:29:36;22.58;;;7.38;;
70715;SDS011;59053;50.832;12.882;2022-12-07T02:32:11;23.75;;;7.90;;
70715;SDS011;59053;50.832;12.882;2022-12-07T02:34:50;23.67;;;7.13;;
70715;SDS011;59053;50.832;12.882;2022-12-07T02:39:53;23.10;;;7.13;;
70715;SDS011;59053;50.832;12.882;2022-12-07T02:42:23;24.15;;;7.70;;
70715;SDS011;59053;50.832;12.882;2022-12-07T02:44:50;23.13;;;6.53;;
70715;SDS011;59053;50.832;12.882;2022-12-07T02:47:16;24.73;;;6.90;;
70715;SDS011;59053;50.832;12.882;2022-12-07T02:49:42;21.88;;;7.43;;
70715;SDS011;59053;50.832;12.882;2022-12-07T02:52:08;19.50;;;6.47;;
70715;SDS011;59053;50.832;12.882;2022-12-07T02:54:33;24.00;;;7.83;;
70715;SDS011;59053;50.832;12.882;2022-12-07T02:57:23;25.23;;;6.93;;
70715;SDS011;59053;50.832;12.882;2022-12-07T02:59:56;22.02;;;6.43;;
70715;SDS011;59053;50.832;12.882;2022-12-07T03:02:26;22.60;;;6.82;;
70715;SDS011;59053;50.832;12.882;2022-12-07T03:12:53;22.05;;;6.35;;
70715;SDS011;59053;50.832;12.882;2022-12-07T03:15:14;21.13;;;6.28;;
70715;SDS011;59053;50.832;12.882;2022-12-07T03:17:41;19.92;;;6.40;;
70715;SDS011;59053;50.832;12.882;2022-12-07T03:20:09;20.67;;;6.40;;
70715;SDS011;59053;50.832;12.882;2022-12-07T03:22:36;20.60;;;6.43;;
70715;SDS011;59053;50.832;12.882;2022-12-07T03:25:04;18.63;;;5.90;;
70715;SDS011;59053;50.832;12.882;2022-12-07T03:27:33;17.30;;;5.77;;
70715;SDS011;59053;50.832;12.882;2022-12-07T03:30:03;18.77;;;6.20;;
70715;SDS011;59053;50.832;12.882;2022-12-07T03:32:43;17.88;;;5.70;;
70715;SDS011;59053;50.832;12.882;2022-12-07T03:35:14;18.50;;;5.28;;
70715;SDS011;59053;50.832;12.882;2022-12-07T03:40:23;14.80;;;5.15;;
70715;SDS011;59053;50.832;12.882;2022-12-07T03:42:50;19.48;;;5.97;;
70715;SDS011;59053;50.832;12.882;2022-12-07T03:45:16;17.17;;;5.50;;
70715;SDS011;59053;50.832;12.882;2022-12-07T03:47:46;15.15;;;5.85;;
70715;SDS011;59053;50.832;12.882;2022-12-07T03:50:14;18.67;;;5.50;;
70715;SDS011;59053;50.832;12.882;2022-12-07T03:52:43;15.32;;;4.82;;
70715;SDS011;59053;50.832;12.882;2022-12-07T03:55:24;14.70;;;5.18;;
70715;SDS011;59053;50.832;12.882;2022-12-07T03:57:51;16.10;;;4.80;;
70715;SDS011;59053;50.832;12.882;2022-12-07T04:00:18;17.02;;;5.80;;
70715;SDS011;59053;50.832;12.882;2022-12-07T04:02:43;15.53;;;5.47;;
70715;SDS011;59053;50.832;12.882;2022-12-07T04:05:09;15.13;;;5.00;;
70715;SDS011;59053;50.832;12.882;2022-12-07T04:07:34;15.17;;;5.03;;
70715;SDS011;59053;50.832;12.882;2022-12-07T04:10:00;14.63;;;4.67;;
70715;SDS011;59053;50.832;12.882;2022-12-07T04:12:25;13.93;;;4.40;;
70715;SDS011;59053;50.832;12.882;2022-12-07T04:14:50;13.97;;;4.90;;
70715;SDS011;59053;50.832;12.882;2022-12-07T04:17:15;13.32;;;4.70;;
70715;SDS011;59053;50.832;12.882;2022-12-07T04:19:41;15.13;;;4.95;;
70715;SDS011;59053;50.832;12.882;2022-12-07T04:22:07;13.35;;;4.63;;
70715;SDS011;59053;50.832;12.882;2022-12-07T04:24:32;14.80;;;4.80;;
70715;SDS011;59053;50.832;12.882;2022-12-07T04:26:58;11.52;;;4.05;;
70715;SDS011;59053;50.832;12.882;2022-12-07T04:29:23;13.98;;;4.38;;
70715;SDS011;59053;50.832;12.882;2022-12-07T04:31:48;13.43;;;4.33;;
70715;SDS011;59053;50.832;12.882;2022-12-07T04:34:14;14.97;;;4.03;;
70715;SDS011;59053;50.832;12.882;2022-12-07T04:36:40;14.20;;;4.90;;
70715;SDS011;59053;50.832;12.882;2022-12-07T04:39:05;10.82;;;3.83;;
70715;SDS011;59053;50.832;12.882;2022-12-07T04:41:31;13.38;;;4.47;;
70715;SDS011;59053;50.832;12.882;2022-12-07T04:44:00;10.88;;;3.97;;
70715;SDS011;59053;50.832;12.882;2022-12-07T04:46:26;10.90;;;4.15;;
70715;SDS011;59053;50.832;12.882;2022-12-07T04:48:52;12.70;;;4.45;;
70715;SDS011;59053;50.832;12.882;2022-12-07T04:51:22;12.93;;;4.35;;
70715;SDS011;59053;50.832;12.882;2022-12-07T04:53:47;13.67;;;3.80;;
70715;SDS011;59053;50.832;12.882;2022-12-07T04:56:13;12.73;;;4.30;;
70715;SDS011;59053;50.832;12.882;2022-12-07T04:58:39;9.60;;;3.60;;
70715;SDS011;59053;50.832;12.882;2022-12-07T05:01:04;10.53;;;3.70;;
70715;SDS011;59053;50.832;12.882;2022-12-07T05:03:29;10.60;;;3.83;;
70715;SDS011;59053;50.832;12.882;2022-12-07T05:05:55;10.20;;;3.90;;
70715;SDS011;59053;50.832;12.882;2022-12-07T05:08:20;9.70;;;3.63;;
70715;SDS011;59053;50.832;12.882;2022-12-07T05:10:45;11.27;;;4.07;;
70715;SDS011;59053;50.832;12.882;2022-12-07T05:13:10;9.93;;;3.87;;
70715;SDS011;59053;50.832;12.882;2022-12-07T05:15:36;11.87;;;3.80;;
70715;SDS011;59053;50.832;12.882;2022-12-07T05:18:01;10.10;;;3.50;;
70715;SDS011;59053;50.832;12.882;2022-12-07T05:20:28;11.57;;;4.07;;
70715;SDS011;59053;50.832;12.882;2022-12-07T05:22:53;10.13;;;3.70;;
70715;SDS011;59053;50.832;12.882;2022-12-07T05:25:18;9.70;;;3.67;;
70715;SDS011;59053;50.832;12.882;2022-12-07T05:27:44;11.47;;;3.60;;
70715;SDS011;59053;50.832;12.882;2022-12-07T05:30:09;10.20;;;3.57;;
70715;SDS011;59053;50.832;12.882;2022-12-07T05:32:34;10.85;;;3.35;;
70715;SDS011;59053;50.832;12.882;2022-12-07T05:35:00;9.63;;;3.60;;
70715;SDS011;59053;50.832;12.882;2022-12-07T05:37:25;11.57;;;3.70;;
70715;SDS011;59053;50.832;12.882;2022-12-07T05:39:50;12.30;;;4.30;;
70715;SDS011;59053;50.832;12.882;2022-12-07T05:42:15;11.93;;;4.60;;
70715;SDS011;59053;50.832;12.882;2022-12-07T05:44:42;10.27;;;4.10;;
70715;SDS011;59053;50.832;12.882;2022-12-07T05:47:08;12.20;;;4.07;;
70715;SDS011;59053;50.832;12.882;2022-12-07T05:49:33;12.98;;;4.57;;
70715;SDS011;59053;50.832;12.882;2022-12-07T05:51:59;12.00;;;4.87;;
70715;SDS011;59053;50.832;12.882;2022-12-07T05:54:24;14.73;;;4.60;;
70715;SDS011;59053;50.832;12.882;2022-12-07T05:56:50;12.87;;;4.27;;
70715;SDS011;59053;50.832;12.882;2022-12-07T05:59:15;10.57;;;4.10;;
70715;SDS011;59053;50.832;12.882;2022-12-07T06:01:57;13.52;;;4.47;;
70715;SDS011;59053;50.832;12.882;2022-12-07T06:04:22;18.23;;;5.57;;
70715;SDS011;59053;50.832;12.882;2022-12-07T06:06:48;16.73;;;5.27;;
70715;SDS011;59053;50.832;12.882;2022-12-07T06:09:14;12.52;;;5.30;;
70715;SDS011;59053;50.832;12.882;2022-12-07T06:11:39;14.50;;;4.73;;
70715;SDS011;59053;50.832;12.882;2022-12-07T06:14:23;14.98;;;5.45;;
70715;SDS011;59053;50.832;12.882;2022-12-07T06:16:49;17.20;;;5.50;;
70715;SDS011;59053;50.832;12.882;2022-12-07T06:19:14;14.77;;;5.53;;
70715;SDS011;59053;50.832;12.882;2022-12-07T06:21:39;17.50;;;5.80;;
70715;SDS011;59053;50.832;12.882;2022-12-07T06:24:05;14.00;;;5.03;;
70715;SDS011;59053;50.832;12.882;2022-12-07T06:26:30;18.90;;;6.35;;
70715;SDS011;59053;50.832;12.882;2022-12-07T06:28:56;16.87;;;6.03;;
70715;SDS011;59053;50.832;12.882;2022-12-07T06:31:21;18.90;;;6.77;;
70715;SDS011;59053;50.832;12.882;2022-12-07T06:33:46;19.53;;;6.90;;
70715;SDS011;59053;50.832;12.882;2022-12-07T06:36:11;16.40;;;6.10;;
70715;SDS011;59053;50.832;12.882;2022-12-07T06:38:37;19.80;;;6.67;;
70715;SDS011;59053;50.832;12.882;2022-12-07T06:41:02;20.90;;;7.87;;
70715;SDS011;59053;50.832;12.882;2022-12-07T06:43:27;21.33;;;6.70;;
70715;SDS011;59053;50.832;12.882;2022-12-07T06:45:53;18.70;;;6.75;;
70715;SDS011;59053;50.832;12.882;2022-12-07T06:48:18;18.47;;;6.67;;
70715;SDS011;59053;50.832;12.882;2022-12-07T06:50:46;18.63;;;7.17;;
70715;SDS011;59053;50.832;12.882;2022-12-07T06:53:12;21.60;;;7.37;;
70715;SDS011;59053;50.832;12.882;2022-12-07T06:55:37;19.80;;;6.57;;
70715;SDS011;59053;50.832;12.882;2022-12-07T06:58:02;19.40;;;7.07;;
70715;SDS011;59053;50.832;12.882;2022-12-07T07:00:28;20.58;;;6.85;;
70715;SDS011;59053;50.832;12.882;2022-12-07T07:02:53;19.40;;;7.33;;
70715;SDS011;59053;50.832;12.882;2022-12-07T07:05:18;22.37;;;7.00;;
70715;SDS011;59053;50.832;12.882;2022-12-07T07:07:46;19.88;;;6.80;;
70715;SDS011;59053;50.832;12.882;2022-12-07T07:10:11;20.37;;;8.33;;
70715;SDS011;59053;50.832;12.882;2022-12-07T07:12:36;20.50;;;7.50;;
70715;SDS011;59053;50.832;12.882;2022-12-07T07:15:02;23.93;;;8.10;;
70715;SDS011;59053;50.832;12.882;2022-12-07T07:17:27;25.77;;;8.33;;
70715;SDS011;59053;50.832;12.882;2022-12-07T07:19:52;20.63;;;8.07;;
70715;SDS011;59053;50.832;12.882;2022-12-07T07:22:17;24.37;;;8.50;;
70715;SDS011;59053;50.832;12.882;2022-12-07T07:24:43;22.77;;;8.10;;
70715;SDS011;59053;50.832;12.882;2022-12-07T07:27:08;22.13;;;8.00;;
70715;SDS011;59053;50.832;12.882;2022-12-07T07:29:33;25.17;;;8.57;;
70715;SDS011;59053;50.832;12.882;2022-12-07T07:31:59;22.00;;;7.73;;
70715;SDS011;59053;50.832;12.882;2022-12-07T07:34:24;20.98;;;7.53;;
70715;SDS011;59053;50.832;12.882;2022-12-07T07:36:50;19.43;;;7.80;;
70715;SDS011;59053;50.832;12.882;2022-12-07T07:39:15;20.87;;;7.37;;
70715;SDS011;59053;50.832;12.882;2022-12-07T07:41:40;25.33;;;8.27;;
70715;SDS011;59053;50.832;12.882;2022-12-07T07:44:11;22.95;;;7.80;;
70715;SDS011;59053;50.832;12.882;2022-12-07T07:46:36;23.17;;;8.00;;
70715;SDS011;59053;50.832;12.882;2022-12-07T07:49:01;21.13;;;7.77;;
70715;SDS011;59053;50.832;12.882;2022-12-07T07:51:27;21.57;;;7.77;;
70715;SDS011;59053;50.832;12.882;2022-12-07T07:53:52;22.33;;;7.73;;
70715;SDS011;59053;50.832;12.882;2022-12-07T07:56:17;18.77;;;6.70;;
70715;SDS011;59053;50.832;12.882;2022-12-07T07:58:42;21.07;;;7.77;;
70715;SDS011;59053;50.832;12.882;2022-12-07T08:01:08;20.60;;;7.00;;
70715;SDS011;59053;50.832;12.882;2022-12-07T08:03:33;20.03;;;6.63;;
70715;SDS011;59053;50.832;12.882;2022-12-07T08:05:59;21.27;;;8.30;;
70715;SDS011;59053;50.832;12.882;2022-12-07T08:08:24;18.43;;;7.23;;
70715;SDS011;59053;50.832;12.882;2022-12-07T08:10:49;22.27;;;7.60;;
70715;SDS011;59053;50.832;12.882;2022-12-07T08:13:15;17.03;;;6.80;;
70715;SDS011;59053;50.832;12.882;2022-12-07T08:15:42;16.97;;;6.70;;
70715;SDS011;59053;50.832;12.882;2022-12-07T08:18:07;20.27;;;6.22;;
70715;SDS011;59053;50.832;12.882;2022-12-07T08:20:34;15.80;;;6.30;;
70715;SDS011;59053;50.832;12.882;2022-12-07T08:23:00;17.58;;;6.25;;
70715;SDS011;59053;50.832;12.882;2022-12-07T08:25:25;16.30;;;5.43;;
70715;SDS011;59053;50.832;12.882;2022-12-07T08:27:51;17.40;;;5.67;;
70715;SDS011;59053;50.832;12.882;2022-12-07T08:30:16;18.10;;;6.10;;
70715;SDS011;59053;50.832;12.882;2022-12-07T08:32:42;13.90;;;5.70;;
70715;SDS011;59053;50.832;12.882;2022-12-07T08:35:08;15.82;;;5.72;;
70715;SDS011;59053;50.832;12.882;2022-12-07T08:37:34;15.67;;;5.67;;
70715;SDS011;59053;50.832;12.882;2022-12-07T08:39:59;15.10;;;5.23;;
70715;SDS011;59053;50.832;12.882;2022-12-07T08:42:24;18.00;;;6.13;;
70715;SDS011;59053;50.832;12.882;2022-12-07T08:44:54;16.75;;;6.00;;
70715;SDS011;59053;50.832;12.882;2022-12-07T08:47:19;16.37;;;6.10;;
70715;SDS011;59053;50.832;12.882;2022-12-07T08:49:46;18.30;;;6.83;;
70715;SDS011;59053;50.832;12.882;2022-12-07T08:52:13;16.60;;;6.40;;
70715;SDS011;59053;50.832;12.882;2022-12-07T08:54:38;17.97;;;7.50;;
70715;SDS011;59053;50.832;12.882;2022-12-07T08:57:05;15.05;;;6.05;;
70715;SDS011;59053;50.832;12.882;2022-12-07T08:59:31;17.88;;;6.85;;
70715;SDS011;59053;50.832;12.882;2022-12-07T09:01:58;15.45;;;6.35;;
70715;SDS011;59053;50.832;12.882;2022-12-07T09:04:23;18.13;;;6.80;;
70715;SDS011;59053;50.832;12.882;2022-12-07T09:06:48;16.87;;;6.57;;
70715;SDS011;59053;50.832;12.882;2022-12-07T09:09:14;16.37;;;7.70;;
70715;SDS011;59053;50.832;12.882;2022-12-07T09:11:39;16.07;;;6.07;;
70715;SDS011;59053;50.832;12.882;2022-12-07T09:14:04;16.67;;;6.13;;
70715;SDS011;59053;50.832;12.882;2022-12-07T09:16:30;16.70;;;6.75;;
70715;SDS011;59053;50.832;12.882;2022-12-07T09:18:55;17.43;;;6.40;;
70715;SDS011;59053;50.832;12.882;2022-12-07T09:21:23;16.67;;;6.17;;
70715;SDS011;59053;50.832;12.882;2022-12-07T09:23:48;15.32;;;5.60;;
70715;SDS011;59053;50.832;12.882;2022-12-07T09:26:14;13.77;;;5.97;;
70715;SDS011;59053;50.832;12.882;2022-12-07T09:28:39;15.57;;;6.20;;
70715;SDS011;59053;50.832;12.882;2022-12-07T09:31:05;18.13;;;6.53;;
70715;SDS011;59053;50.832;12.882;2022-12-07T09:33:30;14.88;;;5.93;;
70715;SDS011;59053;50.832;12.882;2022-12-07T09:35:56;19.00;;;6.73;;
70715;SDS011;59053;50.832;12.882;2022-12-07T09:38:21;14.30;;;5.87;;
70715;SDS011;59053;50.832;12.882;2022-12-07T09:40:47;16.93;;;6.57;;
70715;SDS011;59053;50.832;12.882;2022-12-07T09:43:19;14.95;;;5.88;;
70715;SDS011;59053;50.832;12.882;2022-12-07T09:45:45;12.75;;;5.75;;
70715;SDS011;59053;50.832;12.882;2022-12-07T09:48:19;16.80;;;6.07;;
70715;SDS011;59053;50.832;12.882;2022-12-07T09:50:46;15.70;;;7.03;;
70715;SDS011;59053;50.832;12.882;2022-12-07T09:53:25;15.43;;;6.40;;
70715;SDS011;59053;50.832;12.882;2022-12-07T09:55:51;16.02;;;6.68;;
70715;SDS011;59053;50.832;12.882;2022-12-07T09:58:19;15.43;;;6.05;;
70715;SDS011;59053;50.832;12.882;2022-12-07T10:00:45;16.43;;;6.80;;
70715;SDS011;59053;50.832;12.882;2022-12-07T10:03:11;16.48;;;5.95;;
70715;SDS011;59053;50.832;12.882;2022-12-07T10:05:37;15.27;;;5.70;;
70715;SDS011;59053;50.832;12.882;2022-12-07T10:08:04;13.45;;;5.90;;
70715;SDS011;59053;50.832;12.882;2022-12-07T10:10:33;15.47;;;5.90;;
70715;SDS011;59053;50.832;12.882;2022-12-07T10:12:59;13.85;;;5.60;;
70715;SDS011;59053;50.832;12.882;2022-12-07T10:15:41;14.65;;;5.68;;
70715;SDS011;59053;50.832;12.882;2022-12-07T10:18:17;13.23;;;4.88;;
70715;SDS011;59053;50.832;12.882;2022-12-07T10:20:44;13.93;;;4.90;;
70715;SDS011;59053;50.832;12.882;2022-12-07T10:23:13;13.48;;;4.45;;
70715;SDS011;59053;50.832;12.882;2022-12-07T10:25:39;13.35;;;4.45;;
70715;SDS011;59053;50.832;12.882;2022-12-07T10:28:16;14.50;;;5.00;;
70715;SDS011;59053;50.832;12.882;2022-12-07T10:35:54;12.68;;;4.38;;
70715;SDS011;59053;50.832;12.882;2022-12-07T10:38:19;10.77;;;3.80;;
70715;SDS011;59053;50.832;12.882;2022-12-07T10:40:45;11.93;;;4.10;;
70715;SDS011;59053;50.832;12.882;2022-12-07T10:45:43;13.57;;;3.90;;
70715;SDS011;59053;50.832;12.882;2022-12-07T10:48:11;9.93;;;3.60;;
70715;SDS011;59053;50.832;12.882;2022-12-07T10:50:44;8.80;;;3.50;;
70715;SDS011;59053;50.832;12.882;2022-12-07T10:58:52;9.32;;;3.53;;
70715;SDS011;59053;50.832;12.882;2022-12-07T11:01:32;11.27;;;3.50;;
70715;SDS011;59053;50.832;12.882;2022-12-07T11:04:03;9.00;;;3.53;;
70715;SDS011;59053;50.832;12.882;2022-12-07T11:06:37;9.77;;;3.58;;
70715;SDS011;59053;50.832;12.882;2022-12-07T11:19:44;9.20;;;3.30;;
70715;SDS011;59053;50.832;12.882;2022-12-07T11:27:48;10.90;;;3.57;;
70715;SDS011;59053;50.832;12.882;2022-12-07T11:30:20;9.13;;;3.28;;
70715;SDS011;59053;50.832;12.882;2022-12-07T11:38:17;6.03;;;2.85;;
70715;SDS011;59053;50.832;12.882;2022-12-07T11:40:45;6.90;;;2.50;;
70715;SDS011;59053;50.832;12.882;2022-12-07T11:45:42;7.07;;;2.40;;
70715;SDS011;59053;50.832;12.882;2022-12-07T11:50:40;6.03;;;2.38;;
70715;SDS011;59053;50.832;12.882;2022-12-07T11:55:45;8.73;;;2.42;;
70715;SDS011;59053;50.832;12.882;2022-12-07T12:01:01;7.38;;;2.45;;
70715;SDS011;59053;50.832;12.882;2022-12-07T12:03:33;7.47;;;2.63;;
70715;SDS011;59053;50.832;12.882;2022-12-07T12:05:59;6.67;;;2.60;;
70715;SDS011;59053;50.832;12.882;2022-12-07T12:25:07;6.18;;;2.00;;
70715;SDS011;59053;50.832;12.882;2022-12-07T12:27:38;5.30;;;1.88;;
70715;SDS011;59053;50.832;12.882;2022-12-07T12:30:05;5.63;;;2.20;;
70715;SDS011;59053;50.832;12.882;2022-12-07T12:42:52;6.13;;;2.10;;
70715;SDS011;59053;50.832;12.882;2022-12-07T12:45:19;4.53;;;1.90;;
70715;SDS011;59053;50.832;12.882;2022-12-07T12:48:01;8.27;;;2.22;;
70715;SDS011;59053;50.832;12.882;2022-12-07T12:52:55;4.93;;;2.00;;
70715;SDS011;59053;50.832;12.882;2022-12-07T12:55:27;6.55;;;2.20;;
70715;SDS011;59053;50.832;12.882;2022-12-07T13:00:38;5.93;;;1.77;;
70715;SDS011;59053;50.832;12.882;2022-12-07T13:03:04;5.47;;;2.17;;
70715;SDS011;59053;50.832;12.882;2022-12-07T13:05:30;6.13;;;2.10;;
70715;SDS011;59053;50.832;12.882;2022-12-07T13:08:11;5.05;;;1.88;;
70715;SDS011;59053;50.832;12.882;2022-12-07T13:10:41;5.38;;;1.92;;
70715;SDS011;59053;50.832;12.882;2022-12-07T13:20:52;3.88;;;1.60;;
70715;SDS011;59053;50.832;12.882;2022-12-07T13:23:18;7.95;;;2.13;;
70715;SDS011;59053;50.832;12.882;2022-12-07T13:26:33;6.80;;;1.70;;
70715;SDS011;59053;50.832;12.882;2022-12-07T13:28:35;6.03;;;1.80;;
70715;SDS011;59053;50.832;12.882;2022-12-07T13:34:02;5.53;;;1.73;;
70715;SDS011;59053;50.832;12.882;2022-12-07T13:36:30;6.75;;;1.70;;
70715;SDS011;59053;50.832;12.882;2022-12-07T13:39:01;4.63;;;1.60;;
70715;SDS011;59053;50.832;12.882;2022-12-07T13:41:35;6.32;;;1.88;;
70715;SDS011;59053;50.832;12.882;2022-12-07T13:44:02;4.83;;;2.10;;
70715;SDS011;59053;50.832;12.882;2022-12-07T13:46:33;7.53;;;1.65;;
70715;SDS011;59053;50.832;12.882;2022-12-07T13:49:00;6.63;;;1.60;;
70715;SDS011;59053;50.832;12.882;2022-12-07T13:51:26;6.80;;;1.80;;
70715;SDS011;59053;50.832;12.882;2022-12-07T13:53:53;5.97;;;1.83;;
70715;SDS011;59053;50.832;12.882;2022-12-07T13:56:20;3.83;;;1.43;;
70715;SDS011;59053;50.832;12.882;2022-12-07T13:58:46;6.13;;;1.50;;
70715;SDS011;59053;50.832;12.882;2022-12-07T14:01:11;5.27;;;1.60;;
70715;SDS011;59053;50.832;12.882;2022-12-07T14:03:38;4.82;;;1.40;;
70715;SDS011;59053;50.832;12.882;2022-12-07T14:06:14;5.18;;;1.42;;
70715;SDS011;59053;50.832;12.882;2022-12-07T14:08:40;4.67;;;1.50;;
70715;SDS011;59053;50.832;12.882;2022-12-07T14:11:06;6.05;;;1.75;;
70715;SDS011;59053;50.832;12.882;2022-12-07T14:13:34;5.53;;;1.50;;
70715;SDS011;59053;50.832;12.882;2022-12-07T14:16:01;5.57;;;1.70;;
70715;SDS011;59053;50.832;12.882;2022-12-07T14:18:28;4.32;;;1.60;;
70715;SDS011;59053;50.832;12.882;2022-12-07T14:21:13;5.03;;;1.60;;
70715;SDS011;59053;50.832;12.882;2022-12-07T14:23:39;12.95;;;3.45;;
70715;SDS011;59053;50.832;12.882;2022-12-07T14:26:15;12.03;;;3.87;;
70715;SDS011;59053;50.832;12.882;2022-12-07T14:28:40;3.63;;;1.48;;
70715;SDS011;59053;50.832;12.882;2022-12-07T14:31:10;3.67;;;1.70;;
70715;SDS011;59053;50.832;12.882;2022-12-07T14:33:36;4.65;;;1.50;;
70715;SDS011;59053;50.832;12.882;2022-12-07T14:36:01;5.07;;;1.57;;
70715;SDS011;59053;50.832;12.882;2022-12-07T14:38:27;4.63;;;1.30;;
70715;SDS011;59053;50.832;12.882;2022-12-07T14:40:52;5.10;;;1.70;;
70715;SDS011;59053;50.832;12.882;2022-12-07T14:43:18;4.40;;;1.35;;
70715;SDS011;59053;50.832;12.882;2022-12-07T14:45:44;4.65;;;1.38;;
70715;SDS011;59053;50.832;12.882;2022-12-07T14:48:13;5.13;;;1.40;;
70715;SDS011;59053;50.832;12.882;2022-12-07T14:50:40;2.25;;;1.02;;
70715;SDS011;59053;50.832;12.882;2022-12-07T14:53:11;3.30;;;1.00;;
70715;SDS011;59053;50.832;12.882;2022-12-07T14:55:37;3.63;;;1.15;;
70715;SDS011;59053;50.832;12.882;2022-12-07T14:58:03;4.23;;;1.40;;
70715;SDS011;59053;50.832;12.882;2022-12-07T15:00:28;4.27;;;1.20;;
70715;SDS011;59053;50.832;12.882;2022-12-07T15:02:54;3.08;;;1.20;;
70715;SDS011;59053;50.832;12.882;2022-12-07T15:05:19;4.47;;;1.20;;
70715;SDS011;59053;50.832;12.882;2022-12-07T15:07:45;2.37;;;0.93;;
70715;SDS011;59053;50.832;12.882;2022-12-07T15:10:21;3.08;;;1.30;;
70715;SDS011;59053;50.832;12.882;2022-12-07T15:12:47;2.45;;;1.10;;
70715;SDS011;59053;50.832;12.882;2022-12-07T15:15:16;3.67;;;1.10;;
70715;SDS011;59053;50.832;12.882;2022-12-07T15:17:42;4.05;;;1.40;;
70715;SDS011;59053;50.832;12.882;2022-12-07T15:20:10;2.83;;;1.20;;
70715;SDS011;59053;50.832;12.882;2022-12-07T15:22:36;3.50;;;1.27;;
70715;SDS011;59053;50.832;12.882;2022-12-07T15:25:02;3.53;;;1.40;;
70715;SDS011;59053;50.832;12.882;2022-12-07T15:27:29;3.35;;;1.10;;
70715;SDS011;59053;50.832;12.882;2022-12-07T15:29:54;4.25;;;1.30;;
70715;SDS011;59053;50.832;12.882;2022-12-07T15:32:20;2.83;;;1.07;;
70715;SDS011;59053;50.832;12.882;2022-12-07T15:34:45;5.17;;;1.20;;
70715;SDS011;59053;50.832;12.882;2022-12-07T15:37:10;2.23;;;1.20;;
70715;SDS011;59053;50.832;12.882;2022-12-07T15:39:36;3.57;;;1.10;;
70715;SDS011;59053;50.832;12.882;2022-12-07T15:42:01;6.23;;;1.63;;
70715;SDS011;59053;50.832;12.882;2022-12-07T15:44:27;2.75;;;1.30;;
70715;SDS011;59053;50.832;12.882;2022-12-07T15:47:11;4.85;;;1.92;;
70715;SDS011;59053;50.832;12.882;2022-12-07T15:49:36;1.70;;;1.07;;
70715;SDS011;59053;50.832;12.882;2022-12-07T15:52:01;3.40;;;1.30;;
70715;SDS011;59053;50.832;12.882;2022-12-07T15:54:27;3.80;;;1.40;;
70715;SDS011;59053;50.832;12.882;2022-12-07T15:56:53;3.28;;;1.17;;
70715;SDS011;59053;50.832;12.882;2022-12-07T15:59:18;2.73;;;0.90;;
70715;SDS011;59053;50.832;12.882;2022-12-07T16:01:44;3.90;;;1.30;;
70715;SDS011;59053;50.832;12.882;2022-12-07T16:04:09;3.80;;;1.20;;
70715;SDS011;59053;50.832;12.882;2022-12-07T16:06:34;2.27;;;1.23;;
70715;SDS011;59053;50.832;12.882;2022-12-07T16:09:00;4.33;;;1.47;;
70715;SDS011;59053;50.832;12.882;2022-12-07T16:11:25;3.23;;;1.37;;
70715;SDS011;59053;50.832;12.882;2022-12-07T16:13:51;3.80;;;1.40;;
70715;SDS011;59053;50.832;12.882;2022-12-07T16:16:17;2.77;;;1.30;;
70715;SDS011;59053;50.832;12.882;2022-12-07T16:18:43;3.20;;;1.42;;